Bugt, China
Current Conditions -  °F | °C
As of 8:00 PM on Thursday 30 Oct 2014 (Local Time) from ZYTX Reporting Station
Smoke Smoke  
Wind Chill: 10°   Ceiling: Unl
Heat Index: 10°   Visibility: 1.8mi
Dew Point:   Wind: 7mph
Humidity: 76%   Direction: 10°N
Pressure: 30.24"   Gusts: NA
Location:  42.33°N, 120.7°E
Report Text: ZYTX 301200Z 01003MPS 3000 FU NSC 10/06 Q1024 BECMG TL12302500
Loading
Personal Weather Stations






























Interactive Weather Map
Tropical Storm Tracking
New forecast layout! Learn more

10-Day Weather Forecast

Advertisements
Track Severe Weather on mobile